createdAt,value
2022-08-18T00:01:15.907Z,2.78
2022-08-18T00:03:55.640Z,3.08
2022-08-18T00:06:29.572Z,3.88
2022-08-18T00:09:00.267Z,3.15
2022-08-18T00:11:41.353Z,2.58
2022-08-18T00:14:21.854Z,2.90
2022-08-18T00:16:53.897Z,3.67
2022-08-18T00:19:45.456Z,2.75
2022-08-18T00:22:16.110Z,4.20
2022-08-18T00:24:47.645Z,3.03
2022-08-18T00:27:22.929Z,2.67
2022-08-18T00:29:53.846Z,3.83
2022-08-18T00:32:33.848Z,3.28
2022-08-18T00:35:28.823Z,2.75
2022-08-18T00:37:59.795Z,4.55
2022-08-18T00:40:44.734Z,5.28
2022-08-18T00:43:20.929Z,4.93
2022-08-18T00:45:49.604Z,4.40
2022-08-18T00:48:18.739Z,4.93
2022-08-18T00:51:01.648Z,4.68
2022-08-18T00:53:49.647Z,5.07
2022-08-18T00:56:26.829Z,6.43
2022-08-18T00:59:10.158Z,4.88
2022-08-18T01:01:40.075Z,5.90
2022-08-18T01:04:17.829Z,5.20
2022-08-18T01:06:58.676Z,5.03
2022-08-18T01:09:27.224Z,3.28
2022-08-18T01:11:56.547Z,2.90
2022-08-18T01:14:25.106Z,2.65
2022-08-18T01:17:11.989Z,3.05
2022-08-18T01:19:59.366Z,3.90
2022-08-18T01:22:35.751Z,3.50
2022-08-18T01:25:26.126Z,3.13
2022-08-18T01:27:59.787Z,3.20
2022-08-18T01:30:31.291Z,3.75
2022-08-18T01:33:00.090Z,3.85
2022-08-18T01:35:28.747Z,3.17
2022-08-18T01:38:06.583Z,3.85
2022-08-18T01:41:11.210Z,4.00
2022-08-18T01:43:22.993Z,3.88
2022-08-18T01:45:51.461Z,3.70
2022-08-18T01:48:19.644Z,3.17
2022-08-18T01:50:49.389Z,3.95
2022-08-18T01:53:19.173Z,4.40
2022-08-18T01:55:47.356Z,2.85
2022-08-18T01:58:15.544Z,3.63
2022-08-18T02:00:43.929Z,3.05
2022-08-18T02:03:14.457Z,3.00
2022-08-18T02:05:51.207Z,2.90
2022-08-18T02:08:19.429Z,2.72
2022-08-18T02:10:47.979Z,3.25
2022-08-18T02:13:16.139Z,2.70
2022-08-18T02:15:44.608Z,2.60
2022-08-18T02:18:32.513Z,3.13
2022-08-18T02:21:13.863Z,2.70
2022-08-18T02:23:44.937Z,3.30
2022-08-18T02:26:23.428Z,3.13
2022-08-18T02:28:54.051Z,2.83
2022-08-18T02:31:23.866Z,3.42
2022-08-18T02:33:53.091Z,3.75
2022-08-18T02:36:25.237Z,3.78
2022-08-18T02:38:58.756Z,3.67
2022-08-18T02:41:33.136Z,4.43
2022-08-18T02:44:01.809Z,4.05
2022-08-18T02:46:31.279Z,3.83
2022-08-18T02:49:03.230Z,5.03
2022-08-18T02:51:31.925Z,6.22
2022-08-18T02:54:00.217Z,6.50
2022-08-18T02:56:41.371Z,9.77
2022-08-18T02:59:14.683Z,11.13
2022-08-18T03:01:46.270Z,18.37
2022-08-18T03:04:16.280Z,18.38
2022-08-18T03:06:45.584Z,19.02
2022-08-18T03:09:16.855Z,17.65
2022-08-18T03:11:45.631Z,18.77
2022-08-18T03:14:14.757Z,18.23
2022-08-18T03:16:54.211Z,17.30
2022-08-18T03:19:26.218Z,13.55
2022-08-18T03:21:58.174Z,8.52
2022-08-18T03:24:28.805Z,7.82
2022-08-18T03:26:57.807Z,5.88
2022-08-18T03:29:31.711Z,6.00
2022-08-18T03:32:06.701Z,6.20
2022-08-18T03:34:35.452Z,6.15
2022-08-18T03:37:03.786Z,6.22
2022-08-18T03:39:32.051Z,5.63
2022-08-18T03:42:01.861Z,5.90
2022-08-18T03:44:35.696Z,4.10
2022-08-18T03:49:33.865Z,3.75
2022-08-18T03:52:02.958Z,2.03
2022-08-18T03:54:32.596Z,3.10
2022-08-18T03:57:00.998Z,1.70
2022-08-18T03:59:32.060Z,2.10
2022-08-18T04:02:02.491Z,2.25
2022-08-18T04:04:30.775Z,2.28
2022-08-18T04:07:10.045Z,0.90
2022-08-18T04:09:39.278Z,1.67
2022-08-18T04:12:15.477Z,1.52
2022-08-18T04:14:49.008Z,1.65
2022-08-18T04:17:24.344Z,1.60
2022-08-18T04:19:54.569Z,1.42
2022-08-18T04:22:24.928Z,2.00
2022-08-18T04:24:53.802Z,1.25
2022-08-18T04:27:23.069Z,1.20
2022-08-18T04:29:51.555Z,1.30
2022-08-18T04:32:19.829Z,1.08
2022-08-18T04:34:48.044Z,0.80
2022-08-18T04:37:16.874Z,0.77
2022-08-18T04:39:45.926Z,1.90
2022-08-18T04:42:17.553Z,1.10
2022-08-18T04:44:46.201Z,1.02
2022-08-18T04:47:14.488Z,1.10
2022-08-18T04:49:43.719Z,0.98
2022-08-18T04:52:40.420Z,1.00
2022-08-18T04:55:10.422Z,1.50
2022-08-18T04:57:39.225Z,1.10
2022-08-18T05:00:10.348Z,1.30
2022-08-18T05:02:38.603Z,1.20
2022-08-18T05:05:10.110Z,1.77
2022-08-18T05:07:46.847Z,1.30
2022-08-18T05:10:17.744Z,1.25
2022-08-18T05:12:48.565Z,1.90
2022-08-18T05:15:18.784Z,2.10
2022-08-18T05:17:47.643Z,1.52
2022-08-18T05:20:20.110Z,1.70
2022-08-18T05:22:48.317Z,1.77
2022-08-18T05:25:17.221Z,1.40
2022-08-18T05:27:46.365Z,1.40
2022-08-18T05:30:15.441Z,1.73
2022-08-18T05:32:50.143Z,2.05
2022-08-18T05:35:26.963Z,1.90
2022-08-18T05:37:58.120Z,1.85
2022-08-18T05:40:26.582Z,1.63
2022-08-18T05:42:57.376Z,3.00
2022-08-18T05:45:26.317Z,2.65
2022-08-18T05:48:02.358Z,3.05
2022-08-18T05:50:36.529Z,2.92
2022-08-18T05:53:15.510Z,1.88
2022-08-18T05:56:23.620Z,1.60
2022-08-18T05:58:55.557Z,1.83
2022-08-18T06:01:32.995Z,1.50
2022-08-18T06:04:28.171Z,1.70
2022-08-18T06:07:02.440Z,1.80
2022-08-18T06:09:50.531Z,1.63
2022-08-18T06:12:49.286Z,1.80
2022-08-18T06:15:32.395Z,1.80
2022-08-18T06:18:22.673Z,2.00
2022-08-18T06:20:56.868Z,2.13
2022-08-18T06:23:52.440Z,1.80
2022-08-18T06:26:49.580Z,2.05
2022-08-18T06:29:42.635Z,2.15
2022-08-18T06:32:30.659Z,1.83
2022-08-18T06:35:19.143Z,1.80
2022-08-18T06:38:05.609Z,1.60
2022-08-18T06:40:33.828Z,1.60
2022-08-18T06:43:02.338Z,2.00
2022-08-18T06:45:39.603Z,2.95
2022-08-18T06:48:15.535Z,8.05
2022-08-18T06:50:57.954Z,5.25
2022-08-18T06:53:55.537Z,2.97
2022-08-18T06:56:43.939Z,1.50
2022-08-18T06:59:26.357Z,1.63
2022-08-18T07:02:09.265Z,2.05
2022-08-18T07:04:41.403Z,2.15
2022-08-18T07:07:20.563Z,2.05
2022-08-18T07:09:49.631Z,1.95
2022-08-18T07:12:29.051Z,2.08
2022-08-18T07:15:04.036Z,2.55
2022-08-18T07:17:42.295Z,2.72
2022-08-18T07:20:17.889Z,3.67
2022-08-18T07:22:59.768Z,4.43
2022-08-18T07:25:44.125Z,4.15
2022-08-18T07:28:38.800Z,5.28
2022-08-18T07:31:19.773Z,8.68
2022-08-18T07:34:09.996Z,10.45
2022-08-18T07:37:01.314Z,13.02
2022-08-18T07:39:44.035Z,11.82
2022-08-18T07:43:01.428Z,12.07
2022-08-18T07:45:45.447Z,12.40
2022-08-18T07:48:38.051Z,10.10
2022-08-18T07:51:21.850Z,8.00
2022-08-18T07:54:47.145Z,7.47
2022-08-18T07:57:15.277Z,6.40
2022-08-18T08:00:05.117Z,4.20
2022-08-18T08:03:04.285Z,3.70
2022-08-18T08:05:38.670Z,2.78
2022-08-18T08:08:10.176Z,2.67
2022-08-18T08:11:04.812Z,2.53
2022-08-18T08:14:17.592Z,2.50
2022-08-18T08:16:56.654Z,2.60
2022-08-18T08:20:08.480Z,2.05
2022-08-18T08:23:01.827Z,2.33
2022-08-18T08:25:48.889Z,2.20
2022-08-18T08:28:35.762Z,1.95
2022-08-18T08:31:36.137Z,1.92
2022-08-18T08:34:45.691Z,1.67
2022-08-18T08:37:27.864Z,1.65
2022-08-18T08:40:13.034Z,1.40
2022-08-18T08:42:50.680Z,0.90
2022-08-18T08:45:36.595Z,1.20
2022-08-18T08:48:17.790Z,0.90
2022-08-18T08:50:55.421Z,0.70
2022-08-18T08:53:56.015Z,1.30
2022-08-18T08:56:33.861Z,1.50
2022-08-18T08:59:12.197Z,1.15
2022-08-18T09:01:59.446Z,1.05
2022-08-18T09:05:08.193Z,0.63
2022-08-18T09:08:05.674Z,0.80
2022-08-18T09:10:36.641Z,0.70
2022-08-18T09:13:42.211Z,0.98
2022-08-18T09:16:53.795Z,0.80
2022-08-18T09:20:02.883Z,1.02
2022-08-18T09:22:45.728Z,0.65
2022-08-18T09:25:39.298Z,1.00
2022-08-18T09:28:30.405Z,1.00
2022-08-18T09:31:08.942Z,0.93
2022-08-18T09:33:46.399Z,0.70
2022-08-18T09:36:38.084Z,0.95
2022-08-18T09:42:30.098Z,0.90
2022-08-18T09:47:54.579Z,0.90
2022-08-18T09:50:28.444Z,1.33
2022-08-18T09:50:38.293Z,1.23
2022-08-18T09:53:34.087Z,1.08
2022-08-18T09:56:04.933Z,1.35
2022-08-18T09:58:50.013Z,1.65
2022-08-18T10:01:32.931Z,1.40
2022-08-18T10:04:34.781Z,1.90
2022-08-18T10:07:43.469Z,2.85
2022-08-18T10:13:52.732Z,1.50
2022-08-18T10:20:01.721Z,1.70
2022-08-18T10:22:47.783Z,1.40
2022-08-18T10:25:42.065Z,1.52
2022-08-18T10:28:31.707Z,1.55
2022-08-18T10:31:09.724Z,1.90
2022-08-18T10:34:16.441Z,2.00
2022-08-18T10:36:52.452Z,2.58
2022-08-18T10:39:24.654Z,2.60
2022-08-18T10:42:30.941Z,1.70
2022-08-18T10:45:22.069Z,1.45
2022-08-18T10:48:05.330Z,1.13
2022-08-18T10:50:56.364Z,1.30
2022-08-18T10:53:50.732Z,0.88
2022-08-18T10:56:33.953Z,0.90
2022-08-18T10:59:16.398Z,0.85
2022-08-18T11:02:06.271Z,0.65
2022-08-18T11:04:58.343Z,0.70
2022-08-18T11:10:57.489Z,1.63
2022-08-18T11:13:32.845Z,0.63
2022-08-18T11:16:22.542Z,0.47
2022-08-18T11:19:18.278Z,0.55
2022-08-18T11:21:51.174Z,0.60
2022-08-18T11:24:24.966Z,1.25
2022-08-18T11:26:56.503Z,1.80
2022-08-18T11:29:32.941Z,1.85
2022-08-18T11:32:18.989Z,1.15
2022-08-18T11:34:53.854Z,1.35
2022-08-18T11:38:12.339Z,1.10
2022-08-18T11:43:41.103Z,0.90
2022-08-18T11:46:31.830Z,1.02
2022-08-18T11:49:13.947Z,1.30
2022-08-18T11:54:54.121Z,2.17
2022-08-18T11:57:46.474Z,2.15
2022-08-18T12:00:43.126Z,3.10
2022-08-18T12:03:30.785Z,1.73
2022-08-18T12:06:26.666Z,2.38
2022-08-18T12:10:16.747Z,2.53
2022-08-18T12:12:28.143Z,2.35
2022-08-18T12:17:32.769Z,2.63
2022-08-18T12:20:02.302Z,2.55
2022-08-18T12:22:31.636Z,2.72
2022-08-18T12:25:00.432Z,2.60
2022-08-18T12:27:32.233Z,2.17
2022-08-18T12:30:01.872Z,2.75
2022-08-18T12:32:41.820Z,2.53
2022-08-18T12:35:22.211Z,2.50
2022-08-18T12:40:40.093Z,3.00
2022-08-18T12:43:09.126Z,3.80
2022-08-18T12:45:38.117Z,3.53
2022-08-18T12:48:07.776Z,4.30
2022-08-18T12:50:49.753Z,3.45
2022-08-18T12:53:30.171Z,3.42
2022-08-18T12:56:25.755Z,3.45
2022-08-18T12:58:54.781Z,3.15
2022-08-18T13:01:26.794Z,3.38
2022-08-18T13:04:11.530Z,3.08
2022-08-18T13:06:59.827Z,3.20
2022-08-18T13:09:48.040Z,2.90
2022-08-18T13:12:25.571Z,2.75
2022-08-18T13:14:54.982Z,3.38
2022-08-18T13:17:30.449Z,3.15
2022-08-18T13:20:13.476Z,3.17
2022-08-18T13:22:42.737Z,3.22
2022-08-18T13:25:28.770Z,2.72
2022-08-18T13:28:02.210Z,3.92
2022-08-18T13:30:32.414Z,2.88
2022-08-18T13:33:05.815Z,3.13
2022-08-18T13:35:54.175Z,2.38
2022-08-18T13:38:27.381Z,2.70
2022-08-18T13:41:03.568Z,2.78
2022-08-18T13:43:39.435Z,3.15
2022-08-18T13:46:09.852Z,2.95
2022-08-18T13:48:39.607Z,2.45
2022-08-18T13:51:14.205Z,2.28
2022-08-18T13:53:51.000Z,2.43
2022-08-18T13:56:31.354Z,3.28
2022-08-18T13:59:00.315Z,1.73
2022-08-18T14:01:50.091Z,2.08
2022-08-18T14:04:20.106Z,2.13
2022-08-18T14:06:56.954Z,2.33
2022-08-18T14:09:37.163Z,2.17
2022-08-18T14:12:21.521Z,2.53
2022-08-18T14:14:55.747Z,1.85
2022-08-18T14:17:26.372Z,2.15
2022-08-18T14:20:21.295Z,2.03
2022-08-18T14:23:11.220Z,2.08
2022-08-18T14:25:59.876Z,2.08
2022-08-18T14:28:32.618Z,1.80
2022-08-18T14:31:03.459Z,2.20
2022-08-18T14:33:50.576Z,1.83
2022-08-18T14:36:29.880Z,1.58
2022-08-18T14:39:00.472Z,1.48
2022-08-18T14:41:29.741Z,1.45
2022-08-18T14:44:13.345Z,1.23
2022-08-18T14:46:52.137Z,1.50
2022-08-18T14:49:28.062Z,2.10
2022-08-18T14:52:02.214Z,1.58
2022-08-18T14:54:31.904Z,1.83
2022-08-18T14:57:01.867Z,1.83
2022-08-18T14:59:34.585Z,1.92
2022-08-18T15:02:13.489Z,1.50
2022-08-18T15:04:53.045Z,1.70
2022-08-18T15:07:25.074Z,1.92
2022-08-18T15:10:15.435Z,1.40
2022-08-18T15:12:43.520Z,1.90
2022-08-18T15:15:17.745Z,1.60
2022-08-18T15:17:50.109Z,1.95
2022-08-18T15:20:28.787Z,1.20
2022-08-18T15:23:25.077Z,1.73
2022-08-18T15:25:56.802Z,1.50
2022-08-18T15:28:27.969Z,1.42
2022-08-18T15:33:50.164Z,1.30
2022-08-18T15:36:24.053Z,1.50
2022-08-18T15:38:58.747Z,1.65
2022-08-18T15:41:49.281Z,1.52
2022-08-18T15:44:19.378Z,1.30
2022-08-18T15:46:53.436Z,1.00
2022-08-18T15:49:23.075Z,1.30
2022-08-18T15:51:52.713Z,0.90
2022-08-18T15:54:21.048Z,1.70
2022-08-18T15:56:57.973Z,1.15
2022-08-18T15:59:34.271Z,1.10
2022-08-18T16:02:11.966Z,1.42
2022-08-18T16:04:46.332Z,1.35
2022-08-18T16:07:17.910Z,1.38
2022-08-18T16:09:53.243Z,1.08
2022-08-18T16:12:21.433Z,1.30
2022-08-18T16:14:52.548Z,1.20
2022-08-18T16:17:30.025Z,1.30
2022-08-18T16:20:01.342Z,1.42
2022-08-18T16:22:29.703Z,1.23
2022-08-18T16:24:57.884Z,1.40
2022-08-18T16:27:28.448Z,1.30
2022-08-18T16:29:57.384Z,1.20
2022-08-18T16:32:25.955Z,1.15
2022-08-18T16:34:54.554Z,1.65
2022-08-18T16:37:22.864Z,1.40
2022-08-18T16:39:51.089Z,1.35
2022-08-18T16:42:19.390Z,1.40
2022-08-18T16:44:47.584Z,1.20
2022-08-18T16:47:19.708Z,1.40
2022-08-18T16:49:51.237Z,2.00
2022-08-18T16:52:20.479Z,0.93
2022-08-18T16:54:48.795Z,1.90
2022-08-18T16:58:01.295Z,1.15
2022-08-18T17:00:54.857Z,1.33
2022-08-18T17:03:43.495Z,1.30
2022-08-18T17:06:15.182Z,1.17
2022-08-18T17:08:43.971Z,1.42
2022-08-18T17:11:15.085Z,1.25
2022-08-18T17:13:44.599Z,1.50
2022-08-18T17:16:14.979Z,1.30
2022-08-18T17:18:43.655Z,2.67
2022-08-18T17:21:15.058Z,1.45
2022-08-18T17:23:43.413Z,1.38
2022-08-18T17:26:46.333Z,1.90
2022-08-18T17:29:25.971Z,1.70
2022-08-18T17:31:58.973Z,1.40
2022-08-18T17:34:41.884Z,1.20
2022-08-18T17:37:12.751Z,1.52
2022-08-18T17:39:53.820Z,2.60
2022-08-18T17:42:29.281Z,1.13
2022-08-18T17:45:21.767Z,1.13
2022-08-18T17:48:02.038Z,2.30
2022-08-18T17:51:07.034Z,1.17
2022-08-18T17:53:36.316Z,1.30
2022-08-18T17:56:38.395Z,1.30
2022-08-18T17:59:45.506Z,1.63
2022-08-18T18:02:29.824Z,1.60
2022-08-18T18:05:01.926Z,1.58
2022-08-18T18:07:38.422Z,1.40
2022-08-18T18:10:29.203Z,1.70
2022-08-18T18:13:27.772Z,1.50
2022-08-18T18:16:01.389Z,1.95
2022-08-18T18:18:36.982Z,1.20
2022-08-18T18:21:16.596Z,1.67
2022-08-18T18:23:48.755Z,1.48
2022-08-18T18:26:22.587Z,2.08
2022-08-18T18:28:50.909Z,1.70
2022-08-18T18:31:27.665Z,1.65
2022-08-18T18:34:02.158Z,1.52
2022-08-18T18:36:38.621Z,1.63
2022-08-18T18:39:33.705Z,1.58
2022-08-18T18:42:19.400Z,1.50
2022-08-18T18:44:56.603Z,1.17
2022-08-18T18:47:56.699Z,1.52
2022-08-18T18:50:25.844Z,1.67
2022-08-18T18:53:24.525Z,1.70
2022-08-18T18:56:07.333Z,1.98
2022-08-18T18:59:01.551Z,1.63
2022-08-18T19:02:02.666Z,1.80
2022-08-18T19:04:44.784Z,1.75
2022-08-18T19:07:38.949Z,2.25
2022-08-18T19:10:12.756Z,1.42
2022-08-18T19:12:51.167Z,1.55
2022-08-18T19:15:21.192Z,1.52
2022-08-18T19:17:58.933Z,1.65
2022-08-18T19:20:39.405Z,1.60
2022-08-18T19:23:34.243Z,2.13
2022-08-18T19:26:14.338Z,1.77
2022-08-18T19:29:12.038Z,2.00
2022-08-18T19:31:48.942Z,2.00
2022-08-18T19:34:30.017Z,2.40
2022-08-18T19:37:11.629Z,3.75
2022-08-18T19:39:50.291Z,1.88
2022-08-18T19:42:24.636Z,1.58
2022-08-18T19:45:15.822Z,1.70
2022-08-18T19:48:00.217Z,4.07
2022-08-18T19:50:34.181Z,3.17
2022-08-18T19:53:32.827Z,2.10
2022-08-18T19:56:21.413Z,1.90
2022-08-18T19:59:18.195Z,1.70
2022-08-18T20:01:52.132Z,1.63
2022-08-18T20:04:50.108Z,2.10
2022-08-18T20:08:02.147Z,1.92
2022-08-18T20:11:00.536Z,1.70
2022-08-18T20:13:33.899Z,1.70
2022-08-18T20:16:10.988Z,1.98
2022-08-18T20:18:49.668Z,2.58
2022-08-18T20:21:18.463Z,1.95
2022-08-18T20:24:05.959Z,1.80
2022-08-18T20:26:39.869Z,1.58
2022-08-18T20:29:09.465Z,2.33
2022-08-18T20:31:49.901Z,2.00
2022-08-18T20:34:25.203Z,1.40
2022-08-18T20:36:55.897Z,1.60
2022-08-18T20:39:44.308Z,1.73
2022-08-18T20:42:21.893Z,1.88
2022-08-18T20:44:51.940Z,1.63
2022-08-18T20:47:23.168Z,1.70
2022-08-18T20:50:03.721Z,2.08
2022-08-18T20:53:12.657Z,1.80
2022-08-18T20:55:57.252Z,1.33
2022-08-18T20:58:32.160Z,1.90
2022-08-18T21:01:01.846Z,1.67
2022-08-18T21:03:42.974Z,2.00
2022-08-18T21:06:15.461Z,2.08
2022-08-18T21:08:51.068Z,1.93
2022-08-18T21:11:32.095Z,1.63
2022-08-18T21:14:03.948Z,1.58
2022-08-18T21:16:39.424Z,2.15
2022-08-18T21:19:13.695Z,1.73
2022-08-18T21:21:45.702Z,1.90
2022-08-18T21:24:50.517Z,1.90
2022-08-18T21:27:36.126Z,1.85
2022-08-18T21:30:20.658Z,2.00
2022-08-18T21:32:49.802Z,2.05
2022-08-18T21:35:38.066Z,2.50
2022-08-18T21:38:07.655Z,2.38
2022-08-18T21:40:43.410Z,2.70
2022-08-18T21:43:14.176Z,2.70
2022-08-18T21:45:59.237Z,2.50
2022-08-18T21:48:30.266Z,2.50
2022-08-18T21:51:02.086Z,2.92
2022-08-18T21:53:33.808Z,2.78
2022-08-18T21:56:03.046Z,2.93
2022-08-18T21:58:34.469Z,2.92
2022-08-18T22:01:17.510Z,2.13
2022-08-18T22:04:03.019Z,3.13
2022-08-18T22:06:34.162Z,2.13
2022-08-18T22:09:29.654Z,2.63
2022-08-18T22:12:52.757Z,2.03
2022-08-18T22:15:26.995Z,2.25
2022-08-18T22:18:07.970Z,2.28
2022-08-18T22:20:52.818Z,1.90
2022-08-18T22:24:06.226Z,2.28
2022-08-18T22:26:37.488Z,1.92
2022-08-18T22:29:15.878Z,1.95
2022-08-18T22:31:47.128Z,2.17
2022-08-18T22:34:17.602Z,2.63
2022-08-18T22:37:07.361Z,2.45
2022-08-18T22:39:41.165Z,2.08
2022-08-18T22:42:09.747Z,2.22
2022-08-18T22:44:38.275Z,2.20
2022-08-18T22:47:07.620Z,3.47
2022-08-18T22:49:37.090Z,1.48
2022-08-18T22:52:12.083Z,1.60
2022-08-18T22:54:40.663Z,2.22
2022-08-18T22:57:11.706Z,1.77
2022-08-18T22:59:42.762Z,1.55
2022-08-18T23:02:11.332Z,1.38
2022-08-18T23:04:40.755Z,1.88
2022-08-18T23:07:09.266Z,2.03
2022-08-18T23:09:39.588Z,2.33
2022-08-18T23:12:13.637Z,2.17
2022-08-18T23:14:47.316Z,2.28
2022-08-18T23:17:21.485Z,2.45
2022-08-18T23:19:52.274Z,2.28
2022-08-18T23:22:20.705Z,1.98
2022-08-18T23:24:48.876Z,2.40
2022-08-18T23:27:18.135Z,2.10
2022-08-18T23:29:46.392Z,1.98
2022-08-18T23:32:14.869Z,1.70
2022-08-18T23:34:43.076Z,1.50
2022-08-18T23:37:11.267Z,1.55
2022-08-18T23:39:39.737Z,1.58
2022-08-18T23:42:13.218Z,1.95
2022-08-18T23:44:42.326Z,2.13
2022-08-18T23:47:10.581Z,1.38
2022-08-18T23:49:41.671Z,1.52
2022-08-18T23:52:12.577Z,1.17
2022-08-18T23:54:40.775Z,1.85
2022-08-18T23:57:08.980Z,1.65
2022-08-18T23:59:37.218Z,1.90
